Time;durP1;ratioP1;P1;durP2;ratioP2;P2;SDS_P1;SDS_P2;PMS_P1;PMS_P2;Temp;Humidity;BMP_temperature;BMP_pressure;BME280_temperature;BME280_humidity;BME280_pressure;Samples;Min_cycle;Max_cycle;Signal;HPM_P1;HPM_P2
2022/01/30 00:00:36;;;;;;;16.60;3.35;;;;;;;6.58;70.83;102602.66;5075114;28;20099;-89
2022/01/30 00:03:02;;;;;;;22.25;3.67;;;;;;;6.67;70.27;102622.84;5078493;28;20032;-88
2022/01/30 00:05:28;;;;;;;17.00;3.67;;;;;;;6.62;70.49;102620.19;5079102;28;20027;-88
2022/01/30 00:07:54;;;;;;;28.73;3.92;;;;;;;6.59;70.23;102621.91;5086732;28;20020;-88
2022/01/30 00:10:19;;;;;;;16.70;3.00;;;;;;;6.51;70.55;102621.88;5083836;28;20038;-88
2022/01/30 00:12:55;;;;;;;14.13;2.65;;;;;;;6.44;70.81;102625.34;5086018;28;20020;-87
2022/01/30 00:15:35;;;;;;;17.83;2.63;;;;;;;6.47;70.23;102627.97;5084416;28;20089;-88
2022/01/30 00:18:11;;;;;;;22.88;4.05;;;;;;;6.42;70.58;102627.06;5086952;28;20512;-88
2022/01/30 00:20:39;;;;;;;17.77;3.95;;;;;;;6.32;70.51;102618.25;5080909;28;20383;-88
2022/01/30 00:23:16;;;;;;;19.52;3.75;;;;;;;6.37;70.59;102634.03;5085067;28;20023;-87
2022/01/30 00:25:59;;;;;;;17.77;3.72;;;;;;;6.35;70.46;102627.94;5077112;28;20051;-88
2022/01/30 00:28:26;;;;;;;20.75;3.47;;;;;;;6.47;70.05;102632.34;5076697;28;20024;-87
2022/01/30 00:30:53;;;;;;;15.73;3.38;;;;;;;6.47;70.08;102642.84;5082074;28;20044;-88
2022/01/30 00:33:19;;;;;;;22.77;3.38;;;;;;;6.36;70.07;102637.56;5082682;28;20028;-89
2022/01/30 00:35:44;;;;;;;17.55;3.33;;;;;;;6.43;69.76;102649.84;5085274;28;20062;-88
2022/01/30 00:38:15;;;;;;;10.90;2.33;;;;;;;6.36;69.83;102640.19;5084422;28;20020;-88
2022/01/30 00:40:44;;;;;;;20.40;3.05;;;;;;;6.38;69.55;102635.81;5081952;28;20051;-88
2022/01/30 00:43:09;;;;;;;13.55;2.28;;;;;;;6.47;69.96;102653.38;5076548;28;20512;-89
2022/01/30 00:45:34;;;;;;;20.17;3.13;;;;;;;6.32;70.38;102641.03;5077225;28;20047;-89
2022/01/30 00:48:00;;;;;;;15.20;2.80;;;;;;;6.33;70.25;102645.41;5084815;28;20023;-88
2022/01/30 00:50:26;;;;;;;18.42;2.92;;;;;;;6.26;70.48;102646.25;5085828;28;20026;-88
2022/01/30 00:52:55;;;;;;;16.17;2.78;;;;;;;6.17;70.74;102638.31;5075622;28;20033;-88
2022/01/30 00:55:22;;;;;;;18.75;2.97;;;;;;;6.22;70.58;102650.59;5082561;28;20230;-88
2022/01/30 00:57:47;;;;;;;23.80;3.58;;;;;;;6.18;71.33;102637.44;5084382;28;20388;-88
2022/01/30 01:00:14;;;;;;;16.38;3.03;;;;;;;6.17;70.70;102644.44;5085162;28;20020;-88
2022/01/30 01:02:39;;;;;;;18.63;3.42;;;;;;;6.16;71.20;102650.56;5084117;28;20031;-89
2022/01/30 01:05:06;;;;;;;15.35;2.92;;;;;;;6.06;71.10;102657.50;5081884;28;20024;-88
2022/01/30 01:07:33;;;;;;;23.20;3.78;;;;;;;6.03;71.12;102653.97;5075218;28;20264;-88
2022/01/30 01:10:08;;;;;;;22.17;3.75;;;;;;;5.93;71.38;102647.75;5085405;28;20494;-88
2022/01/30 01:26:05;;;;;;;19.30;3.00;;;;;;;5.88;71.66;102657.31;5075851;28;20120;-89
2022/01/30 01:28:31;;;;;;;20.65;4.22;;;;;;;5.80;71.59;102651.97;5081749;28;20078;-88
2022/01/30 01:30:57;;;;;;;13.80;2.92;;;;;;;5.81;71.47;102652.84;5076374;28;20127;-88
2022/01/30 01:33:27;;;;;;;20.70;3.20;;;;;;;5.85;71.46;102657.28;5083113;28;20024;-89
2022/01/30 01:35:52;;;;;;;18.65;3.10;;;;;;;5.86;71.90;102665.16;5082605;28;20019;-89
2022/01/30 01:38:19;;;;;;;13.07;4.05;;;;;;;5.80;71.62;102662.47;5084493;28;20032;-88
2022/01/30 01:40:51;;;;;;;14.25;2.80;;;;;;;5.83;71.55;102678.28;5081785;28;20310;-89
2022/01/30 01:43:20;;;;;;;10.73;2.40;;;;;;;5.73;71.86;102665.03;5084037;28;20036;-88
2022/01/30 01:45:48;;;;;;;26.67;4.90;;;;;;;5.70;72.11;102662.41;5087093;28;20012;-88
2022/01/30 01:48:14;;;;;;;20.55;4.05;;;;;;;5.70;71.95;102670.25;5084957;28;20023;-88
2022/01/30 01:50:45;;;;;;;38.17;4.75;;;;;;;5.72;72.15;102679.91;5083460;28;20031;-88
2022/01/30 01:53:13;;;;;;;15.77;3.22;;;;;;;5.56;72.66;102671.00;5082408;28;20388;-89
2022/01/30 01:55:40;;;;;;;18.65;3.03;;;;;;;5.68;72.16;102677.22;5085156;28;20036;-88
2022/01/30 01:58:06;;;;;;;18.13;2.75;;;;;;;5.65;72.18;102671.97;5081627;28;20111;-88
2022/01/30 02:00:32;;;;;;;18.13;3.10;;;;;;;5.64;72.55;102684.19;5086129;28;20114;-89
2022/01/30 02:02:58;;;;;;;17.20;4.13;;;;;;;5.65;72.51;102680.72;5083071;28;20538;-89
2022/01/30 02:05:27;;;;;;;11.55;2.97;;;;;;;5.57;72.85;102678.00;5086045;28;20111;-89
2022/01/30 02:10:29;;;;;;;17.48;3.08;;;;;;;5.48;72.88;102663.91;5081599;28;20033;-88
2022/01/30 02:13:07;;;;;;;21.63;3.08;;;;;;;5.44;73.01;102662.13;5086280;28;20528;-88
2022/01/30 02:23:55;;;;;;;20.77;3.33;;;;;;;5.48;73.31;102658.69;5081232;28;20024;-89
2022/01/30 02:24:09;;;;;;;13.35;1.95;;;;;;;5.43;73.20;102655.13;5082236;28;20036;-89
2022/01/30 02:26:36;;;;;;;21.13;3.33;;;;;;;5.35;73.81;102653.28;5089870;28;20031;-88
2022/01/30 02:29:02;;;;;;;16.73;2.97;;;;;;;5.38;73.73;102660.31;5089125;28;20099;-88
2022/01/30 02:31:27;;;;;;;13.70;3.08;;;;;;;5.38;73.96;102653.34;5087458;28;20182;-88
2022/01/30 02:33:52;;;;;;;22.13;3.40;;;;;;;5.42;73.42;102656.88;5082901;28;20031;-89
2022/01/30 02:36:18;;;;;;;25.63;4.20;;;;;;;5.51;73.54;102661.34;5086456;28;20028;-88
2022/01/30 02:38:43;;;;;;;20.42;3.05;;;;;;;5.47;73.51;102660.41;5089403;28;20043;-89
2022/01/30 02:41:08;;;;;;;12.82;2.53;;;;;;;5.41;73.67;102670.84;5087542;28;20504;-88
2022/01/30 02:43:39;;;;;;;19.05;3.85;;;;;;;5.29;73.96;102647.13;5087015;28;20436;-89
2022/01/30 02:46:42;;;;;;;21.90;2.80;;;;;;;5.28;74.16;102666.34;5078981;28;20415;-89
2022/01/30 02:49:00;;;;;;;24.42;3.33;;;;;;;5.15;74.53;102648.72;5077127;28;20419;-88
2022/01/30 02:51:33;;;;;;;14.15;2.50;;;;;;;5.09;74.72;102652.16;5086854;28;20074;-88
2022/01/30 02:54:05;;;;;;;18.15;2.78;;;;;;;5.12;74.90;102665.25;5087701;28;20023;-88
2022/01/30 02:56:31;;;;;;;18.80;3.03;;;;;;;4.93;75.17;102658.06;5087191;28;20030;-87
2022/01/30 02:58:56;;;;;;;21.20;3.22;;;;;;;4.97;75.38;102667.72;5080501;28;20049;-88
2022/01/30 03:01:22;;;;;;;19.90;3.45;;;;;;;4.84;75.95;102666.66;5088273;28;20020;-89
2022/01/30 03:03:47;;;;;;;18.33;3.20;;;;;;;4.78;76.08;102666.59;5076279;28;20814;-88
2022/01/30 03:06:12;;;;;;;27.20;3.55;;;;;;;4.79;75.90;102686.69;5088956;28;20080;-88
2022/01/30 03:08:38;;;;;;;19.38;3.20;;;;;;;4.65;76.42;102673.41;5084365;28;20024;-88
2022/01/30 03:11:04;;;;;;;16.90;3.08;;;;;;;4.55;76.58;102669.78;5086736;28;20058;-88
2022/01/30 03:13:29;;;;;;;17.58;2.90;;;;;;;4.61;76.59;102675.09;5089767;28;20055;-88
2022/01/30 03:15:56;;;;;;;15.32;2.70;;;;;;;4.70;76.65;102697.06;5088728;28;20047;-88
2022/01/30 03:18:21;;;;;;;15.40;3.42;;;;;;;4.65;76.83;102683.88;5084389;28;20055;-88
2022/01/30 03:20:48;;;;;;;17.65;3.28;;;;;;;4.72;76.74;102692.72;5084683;28;20459;-88
2022/01/30 03:23:13;;;;;;;15.02;2.63;;;;;;;4.68;76.75;102699.66;5086043;28;20086;-88
2022/01/30 03:25:38;;;;;;;15.70;3.38;;;;;;;4.78;76.60;102698.03;5081357;28;20543;-88
2022/01/30 03:28:04;;;;;;;17.30;3.10;;;;;;;4.97;76.39;102714.88;5088815;28;20103;-88
2022/01/30 03:30:31;;;;;;;16.27;2.75;;;;;;;5.00;76.27;102709.69;5082011;28;20064;-88
2022/01/30 03:32:56;;;;;;;20.00;3.35;;;;;;;5.09;75.86;102723.81;5083706;28;20073;-88
2022/01/30 03:35:22;;;;;;;12.63;3.10;;;;;;;5.03;76.07;102715.84;5078224;28;20024;-88
2022/01/30 03:37:47;;;;;;;19.42;3.75;;;;;;;5.10;75.77;102719.44;5087703;28;20099;-89
2022/01/30 03:40:13;;;;;;;29.70;3.65;;;;;;;5.15;75.67;102727.34;5084880;28;20043;-88
2022/01/30 03:42:38;;;;;;;19.05;3.03;;;;;;;5.26;75.35;102738.84;5083447;28;20063;-88
2022/01/30 03:45:05;;;;;;;12.88;2.25;;;;;;;5.31;75.30;102737.16;5086979;28;20112;-88
2022/01/30 03:47:30;;;;;;;26.35;3.50;;;;;;;5.29;75.34;102734.53;5081750;28;20493;-88
2022/01/30 03:49:55;;;;;;;12.18;2.28;;;;;;;5.38;74.92;102750.38;5085005;28;20035;-89
2022/01/30 03:52:21;;;;;;;18.38;3.25;;;;;;;5.36;74.79;102739.00;5087483;28;20102;-88
2022/01/30 03:54:46;;;;;;;20.10;2.33;;;;;;;5.49;74.52;102754.88;5082535;28;20021;-88
2022/01/30 03:57:11;;;;;;;16.05;3.28;;;;;;;5.54;73.92;102754.03;5083265;28;20127;-89
2022/01/30 03:59:37;;;;;;;11.73;2.38;;;;;;;5.59;73.80;102757.59;5067541;28;20361;-88
2022/01/30 04:02:03;;;;;;;15.32;3.10;;;;;;;5.68;73.17;102763.81;5080301;28;20028;-89
2022/01/30 04:04:28;;;;;;;12.98;2.63;;;;;;;5.62;73.55;102746.28;5082571;28;20032;-88
2022/01/30 04:06:57;;;;;;;15.57;2.47;;;;;;;5.66;73.39;102765.56;5086656;28;20035;-88
2022/01/30 04:09:24;;;;;;;18.38;2.50;;;;;;;5.69;73.05;102770.81;5084144;28;20082;-89
2022/01/30 04:11:50;;;;;;;14.60;2.47;;;;;;;5.66;72.93;102771.69;5073570;28;20491;-88
2022/01/30 04:14:15;;;;;;;14.80;2.67;;;;;;;5.62;72.99;102776.00;5081352;28;20020;-88
2022/01/30 04:16:41;;;;;;;14.80;2.60;;;;;;;5.59;72.99;102775.09;5081691;28;20024;-88
2022/01/30 04:19:07;;;;;;;20.65;2.75;;;;;;;5.62;73.17;102773.38;5085915;28;20028;-88
2022/01/30 04:21:32;;;;;;;22.15;2.97;;;;;;;5.41;74.29;102762.66;5074378;28;20036;-88
2022/01/30 04:23:58;;;;;;;16.52;3.55;;;;;;;5.32;75.41;102778.28;5083993;28;20396;-88
2022/01/30 04:26:23;;;;;;;25.40;3.60;;;;;;;5.24;75.99;102788.66;5084559;28;20400;-88
2022/01/30 04:28:48;;;;;;;19.33;4.22;;;;;;;5.14;76.15;102778.91;5087134;28;20047;-88
2022/01/30 04:31:14;;;;;;;15.45;2.78;;;;;;;5.14;76.40;102771.06;5076296;28;20082;-87
2022/01/30 04:33:40;;;;;;;19.20;3.30;;;;;;;5.18;76.33;102778.09;5084369;28;20431;-88
2022/01/30 04:36:08;;;;;;;19.85;4.90;;;;;;;5.14;76.79;102773.69;5083948;28;20020;-88
2022/01/30 05:00:21;;;;;;;11.52;2.58;;;;;;;5.23;75.99;102799.16;5087889;28;20483;-89
2022/01/30 05:07:47;;;;;;;14.38;3.05;;;;;;;5.16;75.47;102810.38;5087606;28;20114;-89
2022/01/30 05:10:13;;;;;;;12.52;2.92;;;;;;;5.00;75.59;102804.94;5094894;28;20027;-88
2022/01/30 05:12:50;;;;;;;8.57;2.15;;;;;;;4.86;76.24;102815.22;5083388;28;20020;-89
2022/01/30 05:15:18;;;;;;;12.02;2.97;;;;;;;4.84;76.24;102813.41;5078037;28;20012;-88
2022/01/30 05:17:44;;;;;;;18.35;2.65;;;;;;;4.75;76.52;102821.13;5077887;28;20046;-88
2022/01/30 05:20:10;;;;;;;14.98;2.33;;;;;;;4.70;76.82;102833.28;5080403;28;20020;-88
2022/01/30 05:22:36;;;;;;;15.65;2.67;;;;;;;4.63;76.91;102820.97;5085691;28;20583;-88
2022/01/30 05:25:02;;;;;;;10.93;2.35;;;;;;;4.61;77.14;102823.53;5083496;28;20028;-88
2022/01/30 05:27:28;;;;;;;21.52;2.58;;;;;;;4.46;77.30;102808.44;5076652;28;20460;-89
2022/01/30 05:29:53;;;;;;;16.05;2.33;;;;;;;4.39;77.54;102803.09;5085695;28;20052;-88
2022/01/30 05:32:19;;;;;;;20.83;2.75;;;;;;;4.50;77.62;102830.34;5085276;28;20028;-88
2022/01/30 05:34:44;;;;;;;17.95;3.00;;;;;;;4.47;77.53;102830.28;5084913;28;20023;-88
2022/01/30 05:37:15;;;;;;;19.45;2.40;;;;;;;4.35;77.55;102823.13;5081555;28;20028;-88
2022/01/30 05:39:41;;;;;;;13.23;2.47;;;;;;;4.33;77.83;102833.53;5086082;28;21303;-88
2022/01/30 05:42:07;;;;;;;17.58;2.92;;;;;;;4.25;77.95;102818.56;5082395;28;20400;-88
2022/01/30 05:44:49;;;;;;;14.95;2.38;;;;;;;4.20;77.79;102821.13;5073633;28;20027;-88
2022/01/30 05:47:26;;;;;;;18.67;3.55;;;;;;;4.13;78.22;102821.84;5073573;28;20491;-88
2022/01/30 05:49:51;;;;;;;16.08;2.03;;;;;;;4.01;78.45;102817.28;5086898;28;20023;-88
2022/01/30 05:52:17;;;;;;;14.15;2.38;;;;;;;4.10;78.28;102832.25;5081596;28;20488;-88
2022/01/30 05:54:42;;;;;;;19.00;2.75;;;;;;;3.88;78.49;102806.56;5084334;28;20116;-88
2022/01/30 05:57:07;;;;;;;17.15;3.28;;;;;;;3.89;78.61;102830.13;5085015;28;20030;-88
2022/01/30 05:59:33;;;;;;;16.70;2.22;;;;;;;3.87;78.54;102834.47;5073539;28;20028;-88
2022/01/30 06:01:58;;;;;;;14.25;2.75;;;;;;;3.89;78.61;102839.69;5084318;28;20414;-88
2022/01/30 06:04:23;;;;;;;15.15;2.08;;;;;;;3.92;78.40;102850.25;5085394;28;20024;-88
2022/01/30 06:06:51;;;;;;;24.15;2.58;;;;;;;3.87;78.53;102844.91;5081715;28;20058;-88
2022/01/30 06:11:43;;;;;;;14.55;2.13;;;;;;;3.81;77.85;102826.47;5090651;28;20626;-87
2022/01/30 06:14:09;;;;;;;16.75;2.35;;;;;;;3.84;78.10;102853.56;5083095;28;20445;-88
2022/01/30 06:16:34;;;;;;;20.65;3.35;;;;;;;3.86;78.31;102864.06;5089207;28;20460;-88
2022/01/30 06:19:00;;;;;;;14.63;2.70;;;;;;;3.83;78.51;102854.44;5077747;28;20464;-88
2022/01/30 06:21:25;;;;;;;13.80;2.13;;;;;;;3.95;78.04;102855.50;5082111;28;20026;-88
2022/01/30 06:23:50;;;;;;;18.77;2.75;;;;;;;3.92;77.62;102848.50;5089470;28;20447;-88
2022/01/30 06:26:16;;;;;;;12.48;2.60;;;;;;;3.95;77.41;102845.94;5089384;28;20024;-88
2022/01/30 06:28:41;;;;;;;13.32;2.03;;;;;;;4.07;77.11;102845.28;5082353;28;20032;-88
2022/01/30 06:31:07;;;;;;;21.08;3.22;;;;;;;4.22;77.04;102845.56;5090072;28;20536;-88
2022/01/30 06:33:32;;;;;;;12.32;2.22;;;;;;;4.45;76.28;102850.34;5087346;28;20430;-88
2022/01/30 06:35:57;;;;;;;13.60;1.98;;;;;;;4.54;75.34;102835.66;5089026;28;20067;-88
2022/01/30 06:38:23;;;;;;;13.25;1.77;;;;;;;4.71;74.75;102849.06;5082169;28;20116;-89
2022/01/30 06:40:49;;;;;;;11.60;2.13;;;;;;;4.93;74.02;102854.63;5083715;28;20103;-89
2022/01/30 06:43:14;;;;;;;10.38;2.13;;;;;;;4.90;73.32;102834.50;5086102;28;20451;-88
2022/01/30 06:45:42;;;;;;;13.60;1.77;;;;;;;5.03;72.97;102839.03;5080755;28;20574;-88
2022/01/30 06:48:07;;;;;;;7.18;1.42;;;;;;;5.22;72.54;102857.66;5075965;28;20089;-88
2022/01/30 06:50:33;;;;;;;12.50;2.65;;;;;;;5.24;72.31;102853.34;5086035;28;20024;-89
2022/01/30 06:52:58;;;;;;;12.55;2.28;;;;;;;5.26;72.42;102859.47;5086265;28;20111;-88
2022/01/30 06:55:23;;;;;;;16.52;2.90;;;;;;;5.20;72.30;102868.16;5088694;28;20020;-88
2022/01/30 06:57:49;;;;;;;10.55;2.08;;;;;;;5.16;72.90;102865.44;5083413;28;20047;-89
2022/01/30 07:00:14;;;;;;;15.80;2.78;;;;;;;4.96;73.02;102867.78;5089908;28;20115;-88
2022/01/30 07:02:40;;;;;;;19.63;2.92;;;;;;;4.77;73.95;102871.84;5086942;28;20131;-88
2022/01/30 07:05:06;;;;;;;15.70;2.33;;;;;;;4.66;74.14;102883.88;5087143;28;20035;-88
2022/01/30 07:07:31;;;;;;;10.10;1.90;;;;;;;4.48;74.47;102873.97;5087279;28;20085;-88
2022/01/30 07:09:57;;;;;;;14.50;2.35;;;;;;;4.46;74.74;102902.75;5082607;28;20329;-89
2022/01/30 07:12:22;;;;;;;13.93;2.28;;;;;;;4.33;74.92;102888.53;5081936;28;20056;-88
2022/01/30 07:14:48;;;;;;;17.95;2.65;;;;;;;4.34;74.77;102887.69;5087940;28;20058;-88
2022/01/30 07:17:13;;;;;;;14.18;1.98;;;;;;;4.29;75.04;102904.16;5079560;28;20054;-88
2022/01/30 07:19:38;;;;;;;13.60;2.55;;;;;;;4.16;75.27;102896.94;5081376;28;20487;-88
2022/01/30 07:22:04;;;;;;;14.27;2.05;;;;;;;4.19;75.33;102912.69;5085818;28;20118;-88
2022/01/30 07:24:30;;;;;;;6.93;1.33;;;;;;;4.15;75.55;102897.78;5084519;28;20028;-88
2022/01/30 07:26:55;;;;;;;12.43;2.22;;;;;;;4.15;75.44;102900.38;5085383;28;20393;-88
2022/01/30 07:29:20;;;;;;;14.80;2.33;;;;;;;4.06;75.52;102901.13;5084130;28;20471;-88
2022/01/30 07:31:46;;;;;;;9.85;2.58;;;;;;;4.11;75.48;102901.22;5088484;28;20052;-88
2022/01/30 07:34:11;;;;;;;14.48;2.25;;;;;;;4.13;75.49;102907.34;5085528;28;20024;-88
2022/01/30 07:36:37;;;;;;;15.10;2.42;;;;;;;4.10;75.26;102908.16;5087737;28;20467;-89
2022/01/30 07:39:06;;;;;;;11.48;1.67;;;;;;;4.19;75.20;102923.16;5087297;28;20038;-88
2022/01/30 07:41:32;;;;;;;19.38;3.05;;;;;;;4.15;75.34;102918.72;5081045;28;20024;-88
2022/01/30 07:43:59;;;;;;;10.25;2.42;;;;;;;4.35;74.40;102922.63;5084115;28;20036;-88
2022/01/30 07:46:24;;;;;;;20.58;3.40;;;;;;;4.42;74.06;102926.22;5077641;28;20028;-89
2022/01/30 07:48:49;;;;;;;13.00;2.22;;;;;;;4.50;73.58;102933.38;5083440;28;20109;-88
2022/01/30 07:51:15;;;;;;;13.55;2.53;;;;;;;4.53;73.75;102930.81;5078797;28;20434;-89
2022/01/30 07:53:40;;;;;;;11.32;2.35;;;;;;;4.52;73.40;102925.53;5084291;28;20037;-89
2022/01/30 07:56:05;;;;;;;8.20;1.98;;;;;;;4.61;73.34;102937.06;5085633;28;20578;-88
2022/01/30 07:58:31;;;;;;;19.52;2.47;;;;;;;4.58;73.65;102937.03;5082081;28;20062;-88
2022/01/30 08:00:56;;;;;;;11.90;1.98;;;;;;;4.66;73.08;102934.53;5083967;28;20020;-88
2022/01/30 08:03:22;;;;;;;6.93;1.60;;;;;;;4.67;73.06;102930.19;5085283;28;20039;-88
2022/01/30 08:05:48;;;;;;;9.63;2.00;;;;;;;4.63;73.01;102936.22;5085629;28;20403;-88
2022/01/30 08:08:13;;;;;;;17.48;4.13;;;;;;;4.72;72.81;102944.25;5085327;28;20024;-88
2022/01/30 08:10:39;;;;;;;10.00;1.92;;;;;;;4.74;72.87;102945.16;5081963;28;20031;-88
2022/01/30 08:13:04;;;;;;;18.00;2.70;;;;;;;4.73;72.45;102932.91;5086976;28;20023;-88
2022/01/30 08:15:29;;;;;;;17.50;2.45;;;;;;;4.75;72.75;102931.19;5087758;28;20028;-87
2022/01/30 08:17:55;;;;;;;12.48;1.85;;;;;;;4.86;72.41;102953.25;5083250;28;20467;-87
2022/01/30 08:20:21;;;;;;;9.32;1.30;;;;;;;4.95;72.02;102950.78;5087713;28;20384;-88
2022/01/30 08:22:51;;;;;;;11.63;2.10;;;;;;;5.10;72.23;102964.13;5085508;28;20383;-88
2022/01/30 08:25:18;;;;;;;14.23;1.92;;;;;;;5.26;71.52;102953.88;5079097;28;20024;-87
2022/01/30 08:27:44;;;;;;;13.82;2.28;;;;;;;5.76;70.41;102965.13;5086664;28;20024;-88
2022/01/30 08:30:10;;;;;;;11.10;2.33;;;;;;;6.12;68.70;102956.00;5088564;28;20058;-88
2022/01/30 08:32:40;;;;;;;16.85;2.75;;;;;;;6.48;68.14;102949.41;5084661;28;20016;-88
2022/01/30 08:35:07;;;;;;;15.88;2.65;;;;;;;6.87;66.61;102970.84;5083070;28;20111;-88
2022/01/30 08:37:33;;;;;;;17.02;2.60;;;;;;;6.92;67.25;102951.59;5085197;28;20310;-88
2022/01/30 08:39:58;;;;;;;14.18;2.25;;;;;;;6.92;66.49;102954.22;5081064;28;20239;-88
2022/01/30 08:42:23;;;;;;;11.65;1.98;;;;;;;6.77;65.99;102941.84;5083866;28;20016;-87
2022/01/30 08:44:49;;;;;;;16.85;2.78;;;;;;;6.78;66.29;102951.47;5083625;28;20551;-88
2022/01/30 08:47:14;;;;;;;15.88;2.65;;;;;;;6.69;66.47;102956.63;5083639;28;20028;-88
2022/01/30 08:49:39;;;;;;;15.27;2.13;;;;;;;6.79;66.78;102955.84;5085648;28;20099;-88
2022/01/30 08:52:05;;;;;;;13.75;2.53;;;;;;;7.20;65.64;102956.22;5077879;28;20483;-88
2022/01/30 08:54:30;;;;;;;16.75;3.00;;;;;;;7.53;64.36;102957.34;5081533;28;20024;-88
2022/01/30 08:56:55;;;;;;;13.63;2.30;;;;;;;7.50;64.80;102967.81;5078823;28;20020;-88
2022/01/30 08:59:21;;;;;;;11.25;2.42;;;;;;;7.82;62.61;102968.03;5079910;28;20029;-88
2022/01/30 09:01:46;;;;;;;17.58;2.90;;;;;;;7.60;63.47;102960.03;5087415;28;20024;-88
2022/01/30 09:04:13;;;;;;;14.77;2.88;;;;;;;7.69;63.34;102972.34;5080750;28;20097;-87
2022/01/30 09:06:38;;;;;;;10.18;2.35;;;;;;;8.17;62.16;102966.44;5078236;28;20029;-88
2022/01/30 09:09:04;;;;;;;13.90;2.53;;;;;;;8.07;61.86;102979.59;5079282;28;20031;-88
2022/01/30 09:11:29;;;;;;;17.05;2.40;;;;;;;7.97;62.12;102965.47;5082955;28;20085;-89
2022/01/30 09:13:55;;;;;;;15.02;3.00;;;;;;;8.71;60.16;102974.53;5086135;28;20040;-88
2022/01/30 09:16:20;;;;;;;21.35;2.83;;;;;;;9.39;58.26;102971.06;5082945;28;20028;-88
2022/01/30 09:18:45;;;;;;;20.40;4.28;;;;;;;10.05;56.56;102976.16;5078984;28;20343;-88
2022/01/30 09:21:11;;;;;;;14.18;2.60;;;;;;;10.62;55.08;102976.78;5084787;28;20289;-88
2022/01/30 09:23:37;;;;;;;10.25;2.33;;;;;;;11.14;52.59;102984.34;5083687;28;20028;-87
2022/01/30 09:26:02;;;;;;;20.02;4.72;;;;;;;11.50;52.37;103001.69;5086955;28;20055;-88
2022/01/30 09:28:27;;;;;;;24.30;2.65;;;;;;;12.18;50.91;102991.28;5081242;28;20107;-88
2022/01/30 09:30:53;;;;;;;11.07;2.63;;;;;;;12.80;48.78;102986.00;5078842;28;20068;-88
2022/01/30 09:33:18;;;;;;;15.38;2.90;;;;;;;12.64;48.73;102995.13;5076759;28;20107;-88
2022/01/30 09:35:44;;;;;;;17.25;2.85;;;;;;;12.77;48.72;102996.66;5086408;28;20036;-88
2022/01/30 09:38:09;;;;;;;16.27;2.40;;;;;;;12.09;48.94;102999.34;5089229;28;20020;-87
2022/01/30 09:40:34;;;;;;;15.98;3.33;;;;;;;11.65;49.43;102994.50;5086236;28;20024;-89
2022/01/30 09:43:02;;;;;;;13.52;2.80;;;;;;;10.85;51.15;103013.69;5088870;28;20035;-88
2022/01/30 09:45:29;;;;;;;16.20;2.30;;;;;;;10.54;53.03;103005.06;5089445;28;20103;-88
2022/01/30 09:47:56;;;;;;;19.27;3.50;;;;;;;10.72;52.27;103014.66;5086762;28;20028;-88
2022/01/30 09:50:22;;;;;;;13.30;2.60;;;;;;;10.31;52.59;103007.84;5088103;28;20030;-88
2022/01/30 09:52:48;;;;;;;18.63;3.08;;;;;;;9.92;53.64;103001.75;5089441;28;20123;-89
2022/01/30 09:55:15;;;;;;;16.98;2.90;;;;;;;9.80;53.91;103011.50;5090072;28;20534;-88
2022/01/30 09:57:41;;;;;;;11.57;2.92;;;;;;;10.87;52.85;103019.88;5080717;28;20111;-89
2022/01/30 10:00:09;;;;;;;22.55;3.58;;;;;;;11.13;51.06;103022.31;5084099;28;20073;-88
2022/01/30 10:02:35;;;;;;;17.05;2.42;;;;;;;10.62;51.01;103007.66;5084461;28;20039;-89
2022/01/30 10:05:00;;;;;;;23.85;3.42;;;;;;;9.97;54.48;103017.59;5088222;28;20024;-89
2022/01/30 10:07:48;;;;;;;24.30;3.17;;;;;;;9.60;55.34;103028.22;5088799;28;20115;-89
2022/01/30 10:10:17;;;;;;;19.92;3.58;;;;;;;10.01;54.72;103023.75;5081744;28;20042;-89
2022/01/30 10:13:11;;;;;;;18.50;2.92;;;;;;;11.33;52.55;103039.81;5080570;28;20024;-89
2022/01/30 10:15:57;;;;;;;19.88;3.28;;;;;;;12.62;48.82;103042.00;5086681;28;20434;-88
2022/01/30 10:18:26;;;;;;;18.20;2.83;;;;;;;13.41;44.06;103034.66;5085514;28;20122;-88
2022/01/30 10:20:52;;;;;;;14.32;2.72;;;;;;;14.15;42.84;103047.47;5077124;28;20088;-88
2022/01/30 10:23:18;;;;;;;11.68;2.08;;;;;;;14.82;42.58;103042.53;5075753;28;20532;-88
2022/01/30 10:25:46;;;;;;;17.95;3.13;;;;;;;15.32;41.43;103044.00;5081618;28;20017;-88
2022/01/30 10:28:13;;;;;;;12.20;2.90;;;;;;;15.94;39.78;103040.63;5072342;28;20033;-88
2022/01/30 10:30:45;;;;;;;14.40;2.95;;;;;;;16.32;38.91;103031.56;5075022;28;20085;-88
2022/01/30 10:33:13;;;;;;;16.38;3.03;;;;;;;16.45;38.00;103045.41;5086884;28;20027;-88
2022/01/30 10:35:56;;;;;;;11.90;2.50;;;;;;;16.72;40.63;103052.63;5086312;28;20028;-88
2022/01/30 10:38:25;;;;;;;16.88;2.83;;;;;;;16.78;37.20;103043.53;5090029;28;20369;-88
2022/01/30 10:41:00;;;;;;;16.60;3.25;;;;;;;16.71;39.21;103039.28;5083271;28;20032;-88
2022/01/30 10:44:10;;;;;;;14.82;2.75;;;;;;;16.83;38.90;103044.25;5089109;28;20039;-89
2022/01/30 10:46:44;;;;;;;16.98;2.97;;;;;;;17.17;37.46;103043.22;5079166;28;20503;-88
2022/01/30 10:49:13;;;;;;;15.82;3.40;;;;;;;17.64;35.47;103041.59;5087017;28;20475;-88
2022/01/30 10:51:50;;;;;;;17.77;3.10;;;;;;;18.00;34.63;103035.88;5077708;28;20484;-87
2022/01/30 10:54:15;;;;;;;15.45;2.90;;;;;;;17.81;34.41;103036.56;5085674;28;20700;-88
2022/01/30 10:56:44;;;;;;;15.85;3.00;;;;;;;17.22;35.28;103025.22;5076875;28;20017;-88
2022/01/30 10:59:13;;;;;;;19.45;3.33;;;;;;;16.72;37.33;103043.72;5084394;28;20060;-88
2022/01/30 11:01:44;;;;;;;17.63;3.53;;;;;;;17.15;35.49;103032.53;5083304;28;20030;-89
2022/01/30 11:04:27;;;;;;;13.20;3.03;;;;;;;17.31;35.64;103036.47;5086967;28;20115;-88
2022/01/30 11:06:55;;;;;;;14.68;3.35;;;;;;;17.71;34.16;103024.41;5081598;28;20107;-88
2022/01/30 11:09:28;;;;;;;16.20;4.10;;;;;;;18.39;33.37;103013.94;5083431;28;21908;-88
2022/01/30 11:12:07;;;;;;;17.25;3.22;;;;;;;17.65;34.39;103013.06;5086158;28;20085;-88
2022/01/30 11:14:50;;;;;;;16.80;3.60;;;;;;;16.07;35.82;103002.03;5077827;28;20437;-88
2022/01/30 11:17:18;;;;;;;14.25;2.67;;;;;;;15.96;37.44;103009.47;5080859;28;20028;-89
2022/01/30 11:19:51;;;;;;;11.98;2.67;;;;;;;15.91;37.37;103000.72;5082637;28;20028;-89
2022/01/30 11:22:18;;;;;;;16.55;3.80;;;;;;;16.18;35.90;103007.03;5086359;28;20114;-89
2022/01/30 11:24:52;;;;;;;16.98;3.25;;;;;;;15.11;37.50;102999.22;5083570;28;20020;-89
2022/01/30 11:27:20;;;;;;;15.45;3.70;;;;;;;14.15;39.28;102994.28;5085987;28;20112;-88
2022/01/30 11:29:46;;;;;;;20.23;3.75;;;;;;;13.47;40.43;103002.66;5083888;28;20055;-89
2022/01/30 11:32:13;;;;;;;14.48;3.40;;;;;;;12.88;40.99;103000.06;5080116;28;20056;-89
2022/01/30 11:34:40;;;;;;;12.82;3.38;;;;;;;12.36;42.90;102994.63;5085148;28;20517;-88
2022/01/30 11:37:07;;;;;;;18.00;2.92;;;;;;;11.99;44.74;103005.66;5085150;28;20051;-89
2022/01/30 11:39:33;;;;;;;17.83;3.88;;;;;;;11.62;44.93;102997.19;5083334;28;20063;-89
2022/01/30 11:42:05;;;;;;;15.35;3.20;;;;;;;11.32;44.97;102996.56;5086005;28;20400;-89
2022/01/30 11:44:30;;;;;;;20.15;3.67;;;;;;;11.07;46.33;102997.69;5083436;28;20024;-89
2022/01/30 11:46:56;;;;;;;20.92;3.10;;;;;;;11.30;46.06;103002.78;5083692;28;20028;-89
2022/01/30 11:49:21;;;;;;;17.50;3.20;;;;;;;11.49;44.58;102997.31;5081828;28;20028;-89
2022/01/30 11:51:51;;;;;;;14.57;2.55;;;;;;;11.38;45.03;102988.59;5087382;28;20032;-90
2022/01/30 11:54:44;;;;;;;18.23;3.47;;;;;;;12.23;44.29;102989.47;5082106;28;20464;-90
2022/01/30 11:57:18;;;;;;;;;;;;;;;13.95;42.44;102984.91;5080164;28;20036;-90
2022/01/30 11:59:45;;;;;;;9.55;2.35;;;;;;;14.93;38.60;102989.91;5082132;28;19923;-90
2022/01/30 12:02:20;;;;;;;12.70;3.20;;;;;;;13.39;41.49;102970.91;5077608;28;20028;-90
2022/01/30 12:05:04;;;;;;;13.05;2.65;;;;;;;12.82;43.06;102973.56;5079617;28;20051;-89
2022/01/30 12:07:40;;;;;;;8.02;2.85;;;;;;;12.89;43.75;102987.66;5073209;28;20036;-91
2022/01/30 12:10:27;;;;;;;16.80;3.35;;;;;;;14.26;41.05;102984.28;5080677;28;20035;-90
2022/01/30 12:12:56;;;;;;;14.73;2.22;;;;;;;14.50;39.76;102974.91;5084609;28;20491;-90
2022/01/30 12:15:33;;;;;;;18.38;2.63;;;;;;;13.51;41.84;102978.66;5080394;28;20115;-90
2022/01/30 12:17:59;;;;;;;11.80;2.95;;;;;;;13.99;40.61;102977.75;5078535;28;20036;-91